Time;durP1;ratioP1;P1;durP2;ratioP2;P2;SDS_P1;SDS_P2;PMS_P1;PMS_P2;Temp;Humidity;BMP_temperature;BMP_pressure;BME280_temperature;BME280_humidity;BME280_pressure;Samples;Min_cycle;Max_cycle;Signal;HPM_P1;HPM_P2
2023/01/20 00:01:05;;;;;;;7.13;5.07;;;0.00;99.90;;;;;;4864180;29;20143;-85
2023/01/20 00:03:31;;;;;;;6.33;4.70;;;0.00;99.90;;;;;;4854587;29;20366;-85
2023/01/20 00:05:57;;;;;;;6.40;5.17;;;-0.10;99.90;;;;;;4829618;29;20109;-85
2023/01/20 00:08:22;;;;;;;7.03;5.23;;;-0.10;99.90;;;;;;4806215;29;20053;-85
2023/01/20 00:10:48;;;;;;;7.40;5.63;;;-0.10;99.90;;;;;;4853927;29;20048;-85
2023/01/20 00:13:14;;;;;;;7.07;5.50;;;-0.10;99.90;;;;;;4829602;29;20519;-85
2023/01/20 00:15:39;;;;;;;9.70;6.10;;;-0.10;99.90;;;;;;4840615;29;20055;-85
2023/01/20 00:18:05;;;;;;;7.20;5.77;;;-0.20;99.90;;;;;;4879943;29;20084;-85
2023/01/20 00:20:31;;;;;;;5.90;5.27;;;-0.20;99.90;;;;;;4863492;29;20049;-85
2023/01/20 00:22:57;;;;;;;7.90;6.17;;;-0.10;99.90;;;;;;4863154;29;20615;-85
2023/01/20 00:25:22;;;;;;;8.80;6.57;;;-0.10;99.90;;;;;;4839260;29;20052;-85
2023/01/20 00:27:52;;;;;;;9.00;6.57;;;-0.10;99.90;;;;;;4848032;29;20045;-85
2023/01/20 00:30:18;;;;;;;9.00;5.90;;;0.00;99.90;;;;;;4860619;29;20042;-85
2023/01/20 00:32:44;;;;;;;8.70;6.13;;;0.00;99.90;;;;;;4839476;29;20763;-85
2023/01/20 00:35:11;;;;;;;8.43;6.40;;;0.10;99.90;;;;;;4826532;29;20041;-84
2023/01/20 00:37:37;;;;;;;9.67;6.70;;;0.10;99.90;;;;;;4843773;29;20050;-84
2023/01/20 00:40:03;;;;;;;9.00;7.03;;;0.20;99.90;;;;;;4829335;29;20049;-85
2023/01/20 00:42:29;;;;;;;11.23;7.03;;;0.20;99.90;;;;;;4829470;29;20049;-85
2023/01/20 00:44:55;;;;;;;8.90;7.23;;;0.30;99.90;;;;;;4830497;29;20054;-85
2023/01/20 00:47:21;;;;;;;9.70;7.00;;;0.40;99.90;;;;;;4829597;29;20052;-86
2023/01/20 00:49:47;;;;;;;11.37;8.33;;;0.40;99.90;;;;;;4829846;29;20406;-85
2023/01/20 00:52:13;;;;;;;10.77;8.63;;;0.40;99.90;;;;;;4853829;29;20037;-85
2023/01/20 00:54:39;;;;;;;12.50;8.37;;;0.50;99.90;;;;;;4862695;29;20108;-85
2023/01/20 00:57:05;;;;;;;11.77;8.87;;;0.50;99.90;;;;;;4843928;29;20045;-85
2023/01/20 00:59:31;;;;;;;11.30;8.40;;;0.50;99.90;;;;;;4829250;29;20046;-86
2023/01/20 01:01:57;;;;;;;12.73;9.17;;;0.50;99.90;;;;;;4851150;29;20378;-86
2023/01/20 01:04:22;;;;;;;13.90;9.37;;;0.50;99.90;;;;;;4835586;29;20049;-84
2023/01/20 01:06:51;;;;;;;16.03;10.20;;;0.60;99.90;;;;;;4859546;29;20056;-85
2023/01/20 01:09:17;;;;;;;14.70;9.77;;;0.60;99.90;;;;;;4850510;29;20054;-84
2023/01/20 01:11:43;;;;;;;15.93;10.07;;;0.60;99.90;;;;;;4857852;29;20064;-85
2023/01/20 01:14:09;;;;;;;16.83;10.07;;;0.60;99.90;;;;;;4850496;29;20477;-85
2023/01/20 01:16:35;;;;;;;15.17;10.57;;;0.60;99.90;;;;;;4830157;29;20056;-85
2023/01/20 01:19:01;;;;;;;16.57;11.00;;;0.60;99.90;;;;;;4846973;29;20446;-85
2023/01/20 01:21:27;;;;;;;15.30;10.50;;;0.70;99.90;;;;;;4832340;29;20045;-85
2023/01/20 01:23:52;;;;;;;14.70;10.47;;;0.70;99.90;;;;;;4828315;29;20489;-85
2023/01/20 01:26:18;;;;;;;17.77;11.07;;;0.70;99.90;;;;;;4841570;29;20052;-85
2023/01/20 01:28:47;;;;;;;17.17;11.47;;;0.70;99.90;;;;;;4846664;29;20053;-84
2023/01/20 01:31:13;;;;;;;16.30;12.13;;;0.70;99.90;;;;;;4852461;29;20084;-85
2023/01/20 01:33:38;;;;;;;19.53;12.40;;;0.70;99.90;;;;;;4846469;29;20097;-85
2023/01/20 01:36:07;;;;;;;19.47;12.33;;;0.70;99.90;;;;;;4862315;29;20045;-85
2023/01/20 01:38:33;;;;;;;20.03;12.40;;;0.70;99.90;;;;;;4862256;29;20132;-85
2023/01/20 01:40:59;;;;;;;19.53;12.90;;;0.70;99.90;;;;;;4862177;29;20874;-84
2023/01/20 01:43:28;;;;;;;19.20;12.57;;;0.80;99.90;;;;;;4861129;29;20053;-84
2023/01/20 01:45:54;;;;;;;18.50;13.17;;;0.80;99.90;;;;;;4846216;29;20511;-84
2023/01/20 01:48:27;;;;;;;19.80;13.40;;;0.80;99.90;;;;;;4846326;29;20052;-85
2023/01/20 01:50:57;;;;;;;;;;;0.80;99.90;;;;;;4846774;29;20078;-84
2023/01/20 01:53:25;;;;;;;22.07;13.97;;;0.70;99.90;;;;;;4846219;29;19926;-84
2023/01/20 01:55:58;;;;;;;21.50;14.07;;;0.70;99.90;;;;;;4839396;29;20037;-85
2023/01/20 01:58:28;;;;;;;22.53;14.50;;;0.70;99.90;;;;;;4843547;29;20053;-84
2023/01/20 02:00:54;;;;;;;24.93;15.03;;;0.70;99.90;;;;;;4826569;29;20583;-84
2023/01/20 02:03:21;;;;;;;22.07;14.27;;;0.80;99.90;;;;;;4846316;29;20049;-84
2023/01/20 02:05:50;;;;;;;21.03;13.70;;;0.80;99.90;;;;;;4855036;29;20041;-85
2023/01/20 02:08:17;;;;;;;21.07;13.60;;;0.80;99.90;;;;;;4828146;29;20076;-84
2023/01/20 02:10:42;;;;;;;20.87;13.33;;;0.80;99.90;;;;;;4843035;29;20049;-85
2023/01/20 02:13:08;;;;;;;19.93;13.07;;;0.80;99.90;;;;;;4853814;29;20037;-85
2023/01/20 02:15:55;;;;;;;19.23;13.07;;;0.80;99.90;;;;;;4834269;29;20049;-85
2023/01/20 02:18:53;;;;;;;19.47;12.20;;;0.80;99.90;;;;;;4832552;29;20060;-85
2023/01/20 02:21:43;;;;;;;19.30;12.43;;;0.80;99.90;;;;;;4767499;29;20064;-85
2023/01/20 02:24:41;;;;;;;18.53;13.20;;;0.80;99.90;;;;;;4842704;29;20529;-84
2023/01/20 02:27:22;;;;;;;18.07;11.90;;;0.80;99.90;;;;;;4831519;29;20445;-86
2023/01/20 02:30:06;;;;;;;18.60;13.10;;;0.80;99.90;;;;;;4847071;29;20045;-84
2023/01/20 02:33:02;;;;;;;18.57;13.07;;;0.80;99.90;;;;;;4831372;29;20053;-85
2023/01/20 02:35:32;;;;;;;19.27;12.77;;;0.80;99.90;;;;;;4831537;29;20086;-85
2023/01/20 02:38:12;;;;;;;17.00;12.47;;;0.80;99.90;;;;;;4831411;29;20041;-85
2023/01/20 02:40:51;;;;;;;15.50;11.83;;;0.90;99.90;;;;;;4831160;29;20056;-84
2023/01/20 02:43:45;;;;;;;17.67;11.97;;;0.80;99.90;;;;;;4828026;29;20056;-85
2023/01/20 02:46:33;;;;;;;17.00;12.40;;;0.90;99.90;;;;;;4814790;29;20663;-85
2023/01/20 02:49:26;;;;;;;16.53;12.60;;;0.80;99.90;;;;;;4862940;29;20455;-85
2023/01/20 02:51:58;;;;;;;17.77;12.40;;;0.80;99.90;;;;;;4830965;29;20049;-86
2023/01/20 02:54:29;;;;;;;18.47;12.93;;;0.80;99.90;;;;;;4831186;29;20049;-85
2023/01/20 02:56:57;;;;;;;20.33;13.90;;;0.80;99.90;;;;;;4831182;29;20044;-85
2023/01/20 02:59:27;;;;;;;18.33;12.80;;;0.80;99.90;;;;;;4846562;29;20033;-86
2023/01/20 03:02:01;;;;;;;22.20;14.23;;;0.80;99.90;;;;;;4831341;29;20121;-85
2023/01/20 03:04:32;;;;;;;22.37;13.67;;;0.80;99.90;;;;;;4831207;29;20085;-84
2023/01/20 03:06:59;;;;;;;20.83;13.67;;;0.80;99.90;;;;;;4846134;29;20030;-84
2023/01/20 03:09:31;;;;;;;21.13;13.37;;;0.80;99.90;;;;;;4830873;29;20057;-85
2023/01/20 03:12:00;;;;;;;;;;;0.80;99.90;;;;;;4845804;29;20053;-84
2023/01/20 03:14:26;;;;;;;23.80;14.33;;;0.80;99.90;;;;;;4831094;29;19943;-85
2023/01/20 03:16:52;;;;;;;21.03;13.83;;;0.70;99.90;;;;;;4830605;29;20490;-85
2023/01/20 03:19:19;;;;;;;22.27;14.87;;;0.80;99.90;;;;;;4830583;29;20048;-86
2023/01/20 03:21:44;;;;;;;23.77;15.23;;;0.70;99.90;;;;;;4830130;29;20084;-85
2023/01/20 03:24:11;;;;;;;23.53;14.57;;;0.70;99.90;;;;;;4833673;29;20157;-85
2023/01/20 03:26:37;;;;;;;21.70;14.90;;;0.70;99.90;;;;;;4848796;29;20508;-85
2023/01/20 03:29:10;;;;;;;24.47;15.43;;;0.70;99.90;;;;;;4864035;29;20059;-85
2023/01/20 03:31:40;;;;;;;25.00;16.03;;;0.70;99.90;;;;;;4864047;29;20047;-85
2023/01/20 03:34:11;;;;;;;26.93;16.60;;;0.70;99.90;;;;;;4812209;29;20124;-86
2023/01/20 03:36:39;;;;;;;23.97;16.00;;;0.70;99.90;;;;;;4826858;29;20725;-85
2023/01/20 03:39:05;;;;;;;27.97;17.37;;;0.60;99.90;;;;;;4831598;29;20045;-85
2023/01/20 03:41:36;;;;;;;25.07;16.43;;;0.60;99.90;;;;;;4864305;29;20400;-86
2023/01/20 03:44:02;;;;;;;25.92;16.40;;;0.60;99.90;;;;;;4848985;29;20052;-85
2023/01/20 03:47:12;;;;;;;26.77;16.80;;;0.60;99.90;;;;;;4881007;29;20052;-85
2023/01/20 03:49:54;;;;;;;25.70;16.93;;;0.60;99.90;;;;;;4864099;29;20525;-85
2023/01/20 03:52:20;;;;;;;29.50;17.57;;;0.60;99.90;;;;;;4850075;29;20038;-86
2023/01/20 03:55:03;;;;;;;28.70;18.10;;;0.60;99.90;;;;;;4839105;29;20603;-86
2023/01/20 03:57:38;;;;;;;31.57;17.03;;;0.60;99.90;;;;;;4842349;29;20744;-84
2023/01/20 04:00:07;;;;;;;29.63;17.57;;;0.60;99.90;;;;;;4830293;29;20085;-85
2023/01/20 04:02:36;;;;;;;28.13;17.40;;;0.60;99.90;;;;;;4859985;29;20124;-85
2023/01/20 04:05:04;;;;;;;32.97;18.50;;;0.60;99.90;;;;;;4862853;29;20057;-86
2023/01/20 04:07:30;;;;;;;31.40;18.03;;;0.60;99.90;;;;;;4854344;29;20909;-86
2023/01/20 04:10:01;;;;;;;30.60;17.73;;;0.60;99.90;;;;;;4863941;29;20461;-85
2023/01/20 04:12:28;;;;;;;32.17;18.40;;;0.60;99.90;;;;;;4847860;29;20041;-85
2023/01/20 04:14:53;;;;;;;31.10;17.33;;;0.60;99.90;;;;;;4847819;29;20369;-85
2023/01/20 04:17:19;;;;;;;29.47;18.43;;;0.60;99.90;;;;;;4863273;29;20106;-85
2023/01/20 04:19:45;;;;;;;28.70;17.77;;;0.60;99.90;;;;;;4847629;29;20560;-84
2023/01/20 04:22:27;;;;;;;32.37;17.43;;;0.60;99.90;;;;;;4862875;29;20051;-84
2023/01/20 04:25:04;;;;;;;27.13;16.63;;;0.60;99.90;;;;;;4838981;29;20405;-84
2023/01/20 04:27:30;;;;;;;28.50;16.80;;;0.70;99.90;;;;;;4847582;29;20057;-85
2023/01/20 04:29:55;;;;;;;32.57;17.53;;;0.70;99.90;;;;;;4856697;29;20170;-84
2023/01/20 04:32:21;;;;;;;26.73;15.73;;;0.70;99.90;;;;;;4829304;29;20128;-84
2023/01/20 04:34:50;;;;;;;26.53;16.07;;;0.70;99.90;;;;;;4829889;29;20208;-86
2023/01/20 04:37:16;;;;;;;30.43;16.67;;;0.70;99.90;;;;;;4842851;29;20088;-85
2023/01/20 04:39:42;;;;;;;26.43;15.93;;;0.70;99.90;;;;;;4832139;29;20453;-85
2023/01/20 04:42:09;;;;;;;27.53;16.20;;;0.70;99.90;;;;;;4862545;29;20068;-85
2023/01/20 04:44:35;;;;;;;28.70;15.63;;;0.70;99.90;;;;;;4837438;29;20041;-85
2023/01/20 04:47:01;;;;;;;27.40;16.10;;;0.70;99.90;;;;;;4844282;29;20041;-86
2023/01/20 04:49:27;;;;;;;24.60;14.90;;;0.70;99.90;;;;;;4841886;29;20057;-85
2023/01/20 04:51:52;;;;;;;25.70;15.67;;;0.70;99.90;;;;;;4848298;29;20049;-86
2023/01/20 04:54:18;;;;;;;25.70;14.60;;;0.70;99.90;;;;;;4844450;29;20080;-86
2023/01/20 04:56:44;;;;;;;25.73;15.03;;;0.70;99.90;;;;;;4829166;29;20477;-85
2023/01/20 04:59:10;;;;;;;23.83;14.30;;;0.70;99.90;;;;;;4829111;29;20072;-85
2023/01/20 05:01:35;;;;;;;28.93;15.13;;;0.70;99.90;;;;;;4829590;29;20041;-86
2023/01/20 05:04:01;;;;;;;26.13;14.37;;;0.60;99.90;;;;;;4829016;29;20498;-85
2023/01/20 05:06:27;;;;;;;24.27;14.30;;;0.60;99.90;;;;;;4835309;29;20041;-85
2023/01/20 05:08:52;;;;;;;24.90;14.87;;;0.60;99.90;;;;;;4861979;29;20060;-86
2023/01/20 05:11:18;;;;;;;26.47;14.93;;;0.60;99.90;;;;;;4844028;29;20048;-85
2023/01/20 05:13:44;;;;;;;23.50;14.33;;;0.60;99.90;;;;;;4860734;29;20056;-85
2023/01/20 05:16:10;;;;;;;24.87;15.03;;;0.60;99.90;;;;;;4847257;29;20049;-86
2023/01/20 05:18:36;;;;;;;25.27;14.90;;;0.60;99.90;;;;;;4879168;29;20044;-86
2023/01/20 05:21:04;;;;;;;24.97;13.83;;;0.60;99.90;;;;;;4854781;29;20406;-86
2023/01/20 05:23:29;;;;;;;23.93;13.90;;;0.60;99.90;;;;;;4825950;29;20097;-85
2023/01/20 05:25:55;;;;;;;24.33;13.90;;;0.60;99.90;;;;;;4810215;29;20869;-85
2023/01/20 05:28:21;;;;;;;23.77;14.40;;;0.60;99.90;;;;;;4818932;29;20044;-86
2023/01/20 05:30:47;;;;;;;23.33;14.20;;;0.60;99.90;;;;;;4844042;29;20109;-86
2023/01/20 05:33:13;;;;;;;25.83;14.93;;;0.60;99.90;;;;;;4828516;29;20507;-84
2023/01/20 05:35:39;;;;;;;23.50;13.83;;;0.60;99.90;;;;;;4828759;29;20047;-86
2023/01/20 05:38:05;;;;;;;23.43;14.40;;;0.60;99.90;;;;;;4843578;29;20049;-86
2023/01/20 05:40:30;;;;;;;24.60;14.60;;;0.60;99.90;;;;;;4828459;29;20085;-85
2023/01/20 05:43:00;;;;;;;26.93;14.77;;;0.60;99.90;;;;;;4856764;29;20041;-85
2023/01/20 05:45:26;;;;;;;23.93;14.37;;;0.70;99.90;;;;;;4828444;29;20101;-84
2023/01/20 05:47:59;;;;;;;27.93;15.93;;;0.70;99.90;;;;;;4843814;29;20061;-84
2023/01/20 05:50:26;;;;;;;24.53;14.77;;;0.70;99.90;;;;;;4843462;29;20045;-86
2023/01/20 05:52:52;;;;;;;28.20;16.43;;;0.60;99.90;;;;;;4843807;29;20052;-85
2023/01/20 05:55:18;;;;;;;26.93;15.50;;;0.60;99.90;;;;;;4843790;29;20124;-85
2023/01/20 05:57:44;;;;;;;24.33;15.10;;;0.70;99.90;;;;;;4843515;29;20457;-86
2023/01/20 06:00:11;;;;;;;27.10;15.37;;;0.60;99.90;;;;;;4828203;29;20045;-85
2023/01/20 06:02:37;;;;;;;28.07;14.70;;;0.60;99.90;;;;;;4810174;29;20056;-85
2023/01/20 06:05:03;;;;;;;27.23;15.97;;;0.60;99.90;;;;;;4825101;29;20094;-85
2023/01/20 06:07:30;;;;;;;28.77;16.43;;;0.70;99.90;;;;;;4822042;29;20719;-85
2023/01/20 06:09:56;;;;;;;29.70;16.93;;;0.70;99.90;;;;;;4828179;29;20045;-84
2023/01/20 06:12:22;;;;;;;29.37;17.23;;;0.70;99.90;;;;;;4820274;29;20072;-84
2023/01/20 06:14:48;;;;;;;30.10;16.93;;;0.70;99.90;;;;;;4843480;29;20045;-85
2023/01/20 06:17:14;;;;;;;32.80;18.30;;;0.70;99.90;;;;;;4843056;29;20438;-85
2023/01/20 06:19:40;;;;;;;29.47;17.53;;;0.70;99.90;;;;;;4843045;29;20049;-86
2023/01/20 06:22:07;;;;;;;34.63;18.63;;;0.70;99.90;;;;;;4828264;29;20037;-85
2023/01/20 06:24:33;;;;;;;35.20;19.23;;;0.70;99.90;;;;;;4841458;29;20060;-84
2023/01/20 06:26:58;;;;;;;33.63;17.77;;;0.70;99.90;;;;;;4861386;29;20076;-85
2023/01/20 06:29:24;;;;;;;32.70;18.47;;;0.70;99.90;;;;;;4846036;29;20049;-85
2023/01/20 06:31:50;;;;;;;33.97;19.27;;;0.70;99.90;;;;;;4846147;29;20085;-84
2023/01/20 06:34:16;;;;;;;32.37;17.93;;;0.70;99.90;;;;;;4861245;29;20081;-85
2023/01/20 06:36:41;;;;;;;33.53;18.10;;;0.70;99.90;;;;;;4845913;29;20059;-85
2023/01/20 06:39:07;;;;;;;30.27;17.07;;;0.70;99.90;;;;;;4830649;29;20089;-84
2023/01/20 06:41:33;;;;;;;35.93;19.30;;;0.70;99.90;;;;;;4845214;29;20067;-84
2023/01/20 06:43:59;;;;;;;34.07;17.70;;;0.80;99.90;;;;;;4843795;29;20127;-85
2023/01/20 06:46:24;;;;;;;36.37;19.17;;;0.80;99.90;;;;;;4861237;29;20564;-85
2023/01/20 06:48:50;;;;;;;32.87;18.87;;;0.80;99.90;;;;;;4877880;29;20045;-83
2023/01/20 06:51:19;;;;;;;33.97;19.47;;;0.80;99.90;;;;;;4861230;29;20447;-84
2023/01/20 06:53:45;;;;;;;30.83;18.07;;;0.80;99.90;;;;;;4860983;29;20051;-83
2023/01/20 06:56:14;;;;;;;38.03;20.50;;;0.80;99.90;;;;;;4846528;29;20371;-91
2023/01/20 06:58:40;;;;;;;38.23;20.10;;;0.80;99.90;;;;;;4846790;29;20438;-92
2023/01/20 07:01:09;;;;;;;39.40;19.93;;;0.80;99.90;;;;;;4846451;29;20105;-88
2023/01/20 07:03:36;;;;;;;37.77;20.80;;;0.80;99.90;;;;;;4846216;29;20104;-89
2023/01/20 07:06:06;;;;;;;37.20;21.20;;;0.80;99.90;;;;;;4846598;29;20131;-89
2023/01/20 07:08:32;;;;;;;37.60;20.57;;;0.80;99.90;;;;;;4846290;29;20496;-91
2023/01/20 07:10:57;;;;;;;38.93;21.10;;;0.80;99.90;;;;;;4828572;29;20038;-90
2023/01/20 07:13:23;;;;;;;39.67;21.63;;;0.80;99.90;;;;;;4831662;29;20042;-87
2023/01/20 07:15:49;;;;;;;39.97;21.57;;;0.80;99.90;;;;;;4831715;29;20161;-91
2023/01/20 07:18:15;;;;;;;42.77;21.97;;;0.80;99.90;;;;;;4831382;29;20136;-88
2023/01/20 07:20:42;;;;;;;40.30;21.67;;;0.80;99.90;;;;;;4838764;29;20072;-89
2023/01/20 07:23:08;;;;;;;38.80;20.23;;;0.80;99.90;;;;;;4817055;29;20060;-88
2023/01/20 07:25:36;;;;;;;41.83;22.77;;;0.80;99.90;;;;;;4803589;29;20160;-91
2023/01/20 07:28:03;;;;;;;38.70;22.07;;;0.90;99.90;;;;;;4830662;29;20053;-91
2023/01/20 07:30:29;;;;;;;44.90;24.03;;;0.90;99.90;;;;;;4823730;29;20045;-88
2023/01/20 07:32:55;;;;;;;41.07;21.87;;;0.80;99.90;;;;;;4838351;29;20098;-90
2023/01/20 07:35:20;;;;;;;42.67;23.53;;;0.80;99.90;;;;;;4816024;29;20097;-91
2023/01/20 07:37:46;;;;;;;45.97;23.33;;;0.90;99.90;;;;;;4840654;29;20128;-83
2023/01/20 07:40:12;;;;;;;45.73;24.40;;;0.90;99.90;;;;;;4830405;29;20137;-83
2023/01/20 07:42:38;;;;;;;45.10;24.57;;;0.90;99.90;;;;;;4838233;29;20545;-84
2023/01/20 07:45:04;;;;;;;47.50;23.67;;;0.90;99.90;;;;;;4811785;29;20114;-83
2023/01/20 07:47:30;;;;;;;44.60;24.07;;;0.90;99.90;;;;;;4841334;29;20049;-83
2023/01/20 07:49:56;;;;;;;46.63;24.33;;;1.00;99.90;;;;;;4848247;29;20119;-85
2023/01/20 07:52:22;;;;;;;43.17;23.30;;;1.00;99.90;;;;;;4849793;29;20398;-83
2023/01/20 07:54:48;;;;;;;45.53;24.63;;;0.90;99.90;;;;;;4844691;29;20124;-84
2023/01/20 07:57:13;;;;;;;49.37;24.80;;;1.00;99.90;;;;;;4821916;29;20121;-84
2023/01/20 07:59:39;;;;;;;42.47;23.80;;;1.00;99.90;;;;;;4851341;29;20047;-85
2023/01/20 08:02:05;;;;;;;44.20;24.30;;;0.90;99.90;;;;;;4835868;29;20057;-84
2023/01/20 08:04:32;;;;;;;47.73;25.60;;;1.00;99.90;;;;;;4845067;29;20394;-84
2023/01/20 08:06:58;;;;;;;45.70;24.73;;;1.00;99.90;;;;;;4817841;29;20138;-84
2023/01/20 08:09:23;;;;;;;47.40;23.57;;;1.00;99.90;;;;;;4837904;29;20525;-84
2023/01/20 08:11:49;;;;;;;45.87;23.83;;;1.00;99.90;;;;;;4855148;29;20137;-84
2023/01/20 08:14:15;;;;;;;50.03;25.43;;;1.10;99.90;;;;;;4861716;29;20037;-84
2023/01/20 08:16:41;;;;;;;47.07;25.27;;;1.10;99.90;;;;;;4859641;29;20486;-85
2023/01/20 08:19:06;;;;;;;45.90;23.43;;;1.10;99.90;;;;;;4845038;29;20470;-84
2023/01/20 08:21:32;;;;;;;46.70;24.27;;;1.10;99.90;;;;;;4828040;29;20056;-85
2023/01/20 08:24:00;;;;;;;44.70;24.10;;;1.10;99.90;;;;;;4834064;29;20115;-85
2023/01/20 08:26:28;;;;;;;41.63;23.23;;;1.10;99.90;;;;;;4844861;29;20128;-84
2023/01/20 08:28:55;;;;;;;45.50;23.37;;;1.10;99.90;;;;;;4855806;29;20036;-85
2023/01/20 08:31:23;;;;;;;45.40;23.80;;;1.10;99.90;;;;;;4863438;29;20146;-84
2023/01/20 08:33:54;;;;;;;43.40;23.00;;;1.20;99.90;;;;;;4848421;29;20037;-84
2023/01/20 08:36:23;;;;;;;42.17;22.65;;;1.20;99.90;;;;;;4863251;29;20144;-84
2023/01/20 08:38:48;;;;;;;45.97;24.30;;;1.20;99.90;;;;;;4838529;29;20105;-84
2023/01/20 08:41:21;;;;;;;44.90;23.50;;;1.20;99.90;;;;;;4849296;29;20049;-84
2023/01/20 08:43:47;;;;;;;;;;;1.20;99.90;;;;;;4829769;29;20050;-85
2023/01/20 08:46:14;;;;;;;46.77;23.17;;;1.20;99.90;;;;;;4845126;29;19924;-85
2023/01/20 08:48:41;;;;;;;40.67;21.80;;;1.20;99.90;;;;;;4830084;29;20105;-85
2023/01/20 08:51:12;;;;;;;42.60;23.23;;;1.30;99.90;;;;;;4875781;29;20452;-84
2023/01/20 08:53:39;;;;;;;43.25;22.08;;;1.20;99.90;;;;;;4844521;29;20087;-85
2023/01/20 08:56:05;;;;;;;46.67;23.80;;;1.30;99.90;;;;;;4830581;29;20045;-84
2023/01/20 08:58:31;;;;;;;44.77;23.40;;;1.20;99.90;;;;;;4813928;29;20622;-84
2023/01/20 09:00:57;;;;;;;49.30;25.33;;;1.30;99.90;;;;;;4861967;29;20033;-85
2023/01/20 09:03:23;;;;;;;44.70;23.60;;;1.30;99.90;;;;;;4829201;29;20558;-83
2023/01/20 09:05:49;;;;;;;45.73;23.67;;;1.30;99.90;;;;;;4814540;29;20086;-83
2023/01/20 09:08:16;;;;;;;48.00;24.97;;;1.30;99.90;;;;;;4828591;29;20093;-84
2023/01/20 09:10:44;;;;;;;44.77;22.73;;;1.30;99.90;;;;;;4859830;29;20049;-84
2023/01/20 09:13:09;;;;;;;47.80;23.83;;;1.30;99.90;;;;;;4851554;29;20059;-84
2023/01/20 09:15:35;;;;;;;46.30;23.77;;;1.30;99.90;;;;;;4842033;29;20124;-83
2023/01/20 09:18:01;;;;;;;42.47;23.87;;;1.30;99.90;;;;;;4832566;29;20097;-83
2023/01/20 09:20:29;;;;;;;47.33;23.90;;;1.30;99.90;;;;;;4835480;29;20088;-84
2023/01/20 09:22:55;;;;;;;47.20;25.37;;;1.30;99.90;;;;;;4829219;29;20068;-84
2023/01/20 09:25:21;;;;;;;47.83;26.07;;;1.30;99.90;;;;;;4842255;29;20516;-83
2023/01/20 09:27:46;;;;;;;45.10;24.17;;;1.30;99.90;;;;;;4854715;29;20057;-84
2023/01/20 09:30:13;;;;;;;49.00;25.33;;;1.30;99.90;;;;;;4826762;29;20049;-84
2023/01/20 09:32:38;;;;;;;51.97;25.83;;;1.30;99.90;;;;;;4835302;29;20049;-85
2023/01/20 09:35:05;;;;;;;50.17;25.37;;;1.40;99.90;;;;;;4839539;29;20037;-84
2023/01/20 09:46:39;;;;;;;54.00;25.40;;;1.30;99.90;;;;;;4857422;29;20109;-83
2023/01/20 09:55:08;;;;;;;50.30;25.07;;;1.40;99.90;;;;;;4849360;29;20061;-84
2023/01/20 09:57:38;;;;;;;51.23;25.03;;;1.40;99.90;;;;;;4851060;29;20506;-84
2023/01/20 10:00:10;;;;;;;53.70;26.10;;;1.40;99.90;;;;;;4845561;29;20056;-85
2023/01/20 10:02:37;;;;;;;;;;;1.40;99.90;;;;;;4827937;29;20045;-84
2023/01/20 10:05:17;;;;;;;50.03;25.73;;;1.40;99.90;;;;;;4834850;29;19920;-87
2023/01/20 10:07:43;;;;;;;50.93;25.77;;;1.40;99.90;;;;;;4852370;29;20092;-84
2023/01/20 10:10:48;;;;;;;54.53;27.93;;;1.40;99.90;;;;;;4845973;29;20080;-84
2023/01/20 10:13:26;;;;;;;50.67;24.57;;;1.40;99.90;;;;;;4828724;29;20388;-90
2023/01/20 10:15:54;;;;;;;55.70;27.20;;;1.40;99.90;;;;;;4829017;29;20132;-90
2023/01/20 10:18:32;;;;;;;48.87;25.67;;;1.50;99.90;;;;;;4836177;29;20061;-91
2023/01/20 10:21:07;;;;;;;50.33;26.00;;;1.50;99.90;;;;;;4839791;29;20041;-90
2023/01/20 10:23:41;;;;;;;55.03;27.20;;;1.50;99.90;;;;;;4819996;29;20510;-90
2023/01/20 10:26:37;;;;;;;50.47;25.13;;;1.50;99.90;;;;;;4824148;29;20119;-90
2023/01/20 10:29:08;;;;;;;53.13;26.93;;;1.50;99.90;;;;;;4826036;29;20041;-90
2023/01/20 10:31:47;;;;;;;51.57;26.37;;;1.50;99.90;;;;;;4826654;29;20049;-90
2023/01/20 10:34:22;;;;;;;51.70;26.03;;;1.50;99.90;;;;;;4831105;29;20454;-89
2023/01/20 10:37:09;;;;;;;54.10;26.40;;;1.50;99.90;;;;;;4837230;29;20102;-89
2023/01/20 10:39:56;;;;;;;57.13;26.33;;;1.50;99.90;;;;;;4836841;29;20415;-89
2023/01/20 10:42:23;;;;;;;52.73;25.83;;;1.50;99.90;;;;;;4840760;29;20057;-89
2023/01/20 10:44:51;;;;;;;55.77;27.30;;;1.60;99.90;;;;;;4827829;29;20053;-90
2023/01/20 10:47:40;;;;;;;50.23;25.10;;;1.60;99.90;;;;;;4830023;29;20105;-89
2023/01/20 10:50:15;;;;;;;50.30;24.80;;;1.60;99.90;;;;;;4829520;29;20040;-88
2023/01/20 10:52:56;;;;;;;52.40;25.07;;;1.60;99.90;;;;;;4838518;29;20514;-88
2023/01/20 10:56:00;;;;;;;50.20;24.67;;;1.60;99.90;;;;;;4853752;29;20045;-88
2023/01/20 10:58:37;;;;;;;47.83;23.33;;;1.60;99.90;;;;;;4849777;29;20075;-89
2023/01/20 11:01:08;;;;;;;50.80;23.63;;;1.60;99.90;;;;;;4834833;29;20042;-89
2023/01/20 11:03:41;;;;;;;49.93;24.10;;;1.60;99.90;;;;;;4865934;29;20053;-89
2023/01/20 11:06:26;;;;;;;54.77;25.60;;;1.70;99.90;;;;;;4835320;29;20044;-91
2023/01/20 11:08:53;;;;;;;51.83;25.40;;;1.70;99.90;;;;;;4831029;29;20185;-89
2023/01/20 11:11:21;;;;;;;60.73;26.77;;;1.70;99.90;;;;;;4842870;29;20179;-90
2023/01/20 11:13:50;;;;;;;54.00;26.37;;;1.70;99.90;;;;;;4840277;29;20037;-91
2023/01/20 11:16:23;;;;;;;56.37;28.03;;;1.80;99.90;;;;;;4836732;29;20503;-91
2023/01/20 11:19:02;;;;;;;54.00;26.77;;;1.80;99.90;;;;;;4830750;29;20512;-88
2023/01/20 11:21:32;;;;;;;50.60;25.43;;;1.80;99.90;;;;;;4821905;29;20048;-90
2023/01/20 11:23:59;;;;;;;54.00;26.70;;;1.80;99.90;;;;;;4846880;29;20132;-89
2023/01/20 11:26:36;;;;;;;52.87;26.03;;;1.90;99.90;;;;;;4832858;29;20055;-90
2023/01/20 11:29:33;;;;;;;48.83;22.47;;;1.90;99.90;;;;;;4849663;29;20054;-90
2023/01/20 11:31:59;;;;;;;47.43;23.03;;;1.90;99.90;;;;;;4832903;29;20053;-84
2023/01/20 11:34:32;;;;;;;55.23;25.57;;;1.90;99.90;;;;;;4855834;29;20048;-85
2023/01/20 11:37:03;;;;;;;49.90;23.90;;;1.80;99.90;;;;;;4858260;29;20046;-84
2023/01/20 11:39:55;;;;;;;49.15;24.67;;;1.80;99.90;;;;;;4847150;29;20133;-85
2023/01/20 11:42:27;;;;;;;47.00;23.57;;;1.80;99.90;;;;;;4859282;29;20129;-84
2023/01/20 11:44:56;;;;;;;50.30;23.55;;;1.80;99.90;;;;;;4830229;29;20049;-84
2023/01/20 11:47:35;;;;;;;48.13;23.03;;;1.80;99.90;;;;;;4863206;29;20148;-84
2023/01/20 11:50:07;;;;;;;55.60;25.97;;;1.80;99.90;;;;;;4863830;29;20053;-86
2023/01/20 11:52:42;;;;;;;48.28;24.70;;;1.80;99.90;;;;;;4848652;29;20135;-85
2023/01/20 11:55:24;;;;;;;51.03;25.60;;;1.80;99.90;;;;;;4849113;29;20089;-86
2023/01/20 11:57:50;;;;;;;;;;;1.90;99.90;;;;;;4864498;29;20378;-85
2023/01/20 12:00:19;;;;;;;47.03;24.83;;;1.90;99.90;;;;;;4845464;29;20014;-83
2023/01/20 12:03:13;;;;;;;48.73;23.87;;;1.90;99.90;;;;;;4830104;29;20101;-85
2023/01/20 12:05:50;;;;;;;53.30;24.83;;;1.90;99.90;;;;;;4838617;29;20411;-85
2023/01/20 12:08:25;;;;;;;51.83;25.17;;;1.90;99.90;;;;;;4851729;29;20080;-86
2023/01/20 12:10:52;;;;;;;50.80;25.27;;;1.90;99.90;;;;;;4861713;29;20045;-85
2023/01/20 12:13:31;;;;;;;52.93;27.77;;;1.90;99.90;;;;;;4846012;29;20080;-84
2023/01/20 12:16:00;;;;;;;57.03;28.13;;;1.90;99.90;;;;;;4828991;29;20065;-87
2023/01/20 12:18:33;;;;;;;56.33;27.43;;;1.90;99.90;;;;;;4831653;29;20045;-86
2023/01/20 12:21:06;;;;;;;48.63;24.93;;;1.90;99.90;;;;;;4839614;29;20127;-82
2023/01/20 12:23:38;;;;;;;51.87;24.13;;;1.90;99.90;;;;;;4840083;29;20050;-83
2023/01/20 12:26:05;;;;;;;49.63;24.45;;;1.90;99.90;;;;;;4856022;29;20049;-83
2023/01/20 12:28:53;;;;;;;52.70;26.23;;;1.90;99.90;;;;;;4838127;29;20156;-83
2023/01/20 12:31:22;;;;;;;54.93;25.87;;;1.90;99.90;;;;;;4841641;29;20126;-83
2023/01/20 12:34:09;;;;;;;56.77;26.07;;;1.90;99.90;;;;;;4826535;29;20061;-84
2023/01/20 12:36:38;;;;;;;44.73;22.77;;;1.90;99.90;;;;;;4825404;29;20097;-84
2023/01/20 12:39:31;;;;;;;42.47;21.43;;;2.00;99.90;;;;;;4826087;29;20057;-85
2023/01/20 12:42:09;;;;;;;43.40;22.37;;;1.90;99.90;;;;;;4825832;29;20056;-84
2023/01/20 12:44:41;;;;;;;42.90;22.43;;;1.90;99.90;;;;;;4855274;29;20069;-84
2023/01/20 12:47:46;;;;;;;39.55;21.95;;;1.90;99.90;;;;;;4841974;29;20041;-83
2023/01/20 12:50:30;;;;;;;46.00;23.07;;;1.90;99.90;;;;;;4843350;29;20072;-83
2023/01/20 12:53:24;;;;;;;45.17;22.53;;;1.90;99.90;;;;;;4825577;29;20081;-83
2023/01/20 12:56:10;;;;;;;37.30;20.93;;;1.90;99.90;;;;;;4857094;29;20053;-86
2023/01/20 12:58:55;;;;;;;39.90;20.60;;;1.90;99.90;;;;;;4826345;29;20155;-85
2023/01/20 13:01:42;;;;;;;43.77;21.83;;;1.90;99.90;;;;;;4842989;29;20123;-84
2023/01/20 13:04:11;;;;;;;38.00;20.83;;;1.90;99.90;;;;;;4847254;29;20045;-83
2023/01/20 13:06:48;;;;;;;43.20;22.23;;;1.90;99.90;;;;;;4845127;29;20057;-89
2023/01/20 13:09:20;;;;;;;43.60;22.23;;;1.90;99.90;;;;;;4828549;29;20045;-88
2023/01/20 13:12:13;;;;;;;39.85;22.58;;;1.90;99.90;;;;;;4854932;29;20049;-91